Time;durP1;ratioP1;P1;durP2;ratioP2;P2;SDS_P1;SDS_P2;PMS_P1;PMS_P2;Temp;Humidity;BMP_temperature;BMP_pressure;BME280_temperature;BME280_humidity;BME280_pressure;Samples;Min_cycle;Max_cycle;Signal;HPM_P1;HPM_P2
2023/07/14 00:00:08;;;;;;;;;;;;;;;16.18;65.21;98550.50;2631458;28;19935;-83
2023/07/14 00:01:24;;;;;;;;;;;;;;;15.98;66.14;98546.19;2630892;28;20372;-83
2023/07/14 00:02:40;;;;;;;;;;;;;;;15.96;66.41;98546.25;2631088;28;19985;-82
2023/07/14 00:03:56;;;;;;;;;;;;;;;15.99;65.84;98551.38;2631147;28;19924;-83
2023/07/14 00:05:13;;;;;;;;;;;;;;;16.11;64.59;98549.94;2631013;28;20881;-83
2023/07/14 00:06:29;;;;;;;;;;;;;;;15.88;65.98;98548.38;2630744;28;19924;-83
2023/07/14 00:07:45;;;;;;;;;;;;;;;15.92;66.58;98552.59;2630930;28;20390;-84
2023/07/14 00:09:00;;;;;;;;;;;;;;;15.86;67.19;98547.59;2631272;28;19920;-83
2023/07/14 00:10:18;;;;;;;;;;;;;;;15.88;66.11;98545.75;2631211;28;20086;-84
2023/07/14 00:11:33;;;;;;;;;;;;;;;15.90;65.57;98546.56;2630891;28;20034;-85
2023/07/14 00:12:49;;;;;;;;;;;;;;;15.90;65.51;98543.91;2631025;28;19919;-84
2023/07/14 00:14:05;;;;;;;;;;;;;;;16.03;65.55;98549.44;2630906;28;20355;-84
2023/07/14 00:15:21;;;;;;;;;;;;;;;15.95;64.85;98542.75;2630844;28;20029;-84
2023/07/14 00:16:36;;;;;;;;;;;;;;;15.92;65.06;98547.34;2630879;28;19976;-84
2023/07/14 00:17:53;;;;;;;;;;;;;;;15.82;65.33;98545.09;2630938;28;19924;-84
2023/07/14 00:19:12;;;;;;;;;;;;;;;15.88;65.49;98545.75;2631051;28;19931;-84
2023/07/14 00:20:29;;;;;;;;;;;;;;;15.85;64.90;98537.94;2630923;28;19964;-85
2023/07/14 00:21:46;;;;;;;;;;;;;;;15.87;64.15;98542.22;2630821;28;19927;-84
2023/07/14 00:23:01;;;;;;;;;;;;;;;15.95;64.18;98542.75;2630742;28;19928;-84
2023/07/14 00:24:18;;;;;;;;;;;;;;;15.74;65.51;98541.13;2627276;28;19920;-84
2023/07/14 00:25:33;;;;;;;;;;;;;;;15.80;65.47;98543.47;2628999;28;19924;-84
2023/07/14 00:26:53;;;;;;;;;;;;;;;15.61;65.92;98538.22;2630846;28;19989;-84
2023/07/14 00:28:14;;;;;;;;;;;;;;;15.59;65.72;98535.63;2630816;28;20315;-84
2023/07/14 00:29:36;;;;;;;;;;;;;;;15.64;65.46;98538.06;2630942;28;20323;-84
2023/07/14 00:30:51;;;;;;;;;;;;;;;15.64;65.90;98541.53;2630537;28;20485;-84
2023/07/14 00:32:25;;;;;;;;;;;;;;;15.73;65.20;98542.03;2630758;28;19924;-84
2023/07/14 00:33:41;;;;;;;;;;;;;;;15.74;65.24;98549.91;2630882;28;20566;-84
2023/07/14 00:34:57;;;;;;;;;;;;;;;15.59;66.73;98540.06;2630178;28;19928;-84
2023/07/14 00:36:12;;;;;;;;;;;;;;;15.47;67.83;98552.03;2630694;28;19924;-85
2023/07/14 00:37:28;;;;;;;;;;;;;;;15.34;68.30;98551.75;2630835;28;19924;-84
2023/07/14 00:38:44;;;;;;;;;;;;;;;15.29;68.80;98556.38;2630845;28;19931;-84
2023/07/14 00:39:59;;;;;;;;;;;;;;;15.36;66.95;98552.53;2630818;28;19920;-84
2023/07/14 00:41:19;;;;;;;;;;;;;;;15.29;68.52;98549.31;2630445;28;20000;-84
2023/07/14 00:42:34;;;;;;;;;;;;;;;15.28;69.21;98549.38;2630834;28;19923;-84
2023/07/14 00:43:50;;;;;;;;;;;;;;;15.20;70.04;98553.25;2630939;28;19977;-83
2023/07/14 00:45:10;;;;;;;;;;;;;;;15.23;71.72;98554.91;2630532;28;20425;-82
2023/07/14 00:46:28;;;;;;;;;;;;;;;15.21;73.35;98554.94;2630604;28;19920;-83
2023/07/14 00:47:47;;;;;;;;;;;;;;;15.30;72.93;98550.19;2630828;28;19924;-83
2023/07/14 00:49:10;;;;;;;;;;;;;;;15.23;74.72;98561.00;2630576;28;20020;-83
2023/07/14 00:50:35;;;;;;;;;;;;;;;15.14;75.73;98552.66;2630572;28;19959;-83
2023/07/14 00:51:50;;;;;;;;;;;;;;;15.11;75.53;98562.44;2630496;28;19927;-83
2023/07/14 00:53:11;;;;;;;;;;;;;;;15.12;75.84;98558.00;2630667;28;19935;-84
2023/07/14 00:54:28;;;;;;;;;;;;;;;15.00;76.77;98563.81;2630451;28;20023;-83
2023/07/14 00:55:46;;;;;;;;;;;;;;;15.08;76.68;98556.44;2630445;28;20195;-83
2023/07/14 00:57:01;;;;;;;;;;;;;;;15.25;74.05;98556.50;2630341;28;19961;-83
2023/07/14 00:58:22;;;;;;;;;;;;;;;15.04;75.76;98565.41;2630740;28;20394;-83
2023/07/14 00:59:37;;;;;;;;;;;;;;;14.99;76.11;98562.09;2630377;28;20442;-83
2023/07/14 01:00:59;;;;;;;;;;;;;;;14.73;76.56;98570.22;2630397;28;19926;-83
2023/07/14 01:02:15;;;;;;;;;;;;;;;14.62;78.56;98575.06;2630529;28;20450;-83
2023/07/14 01:03:32;;;;;;;;;;;;;;;14.68;77.97;98570.38;2630684;28;19978;-83
2023/07/14 01:04:49;;;;;;;;;;;;;;;14.66;79.69;98572.25;2630060;28;19959;-83
2023/07/14 01:06:05;;;;;;;;;;;;;;;14.65;79.84;98570.53;2630267;28;19920;-83
2023/07/14 01:07:23;;;;;;;;;;;;;;;14.55;78.23;98567.44;2630595;28;20391;-82
2023/07/14 01:08:45;;;;;;;;;;;;;;;14.50;79.73;98568.53;2630529;28;20855;-83
2023/07/14 01:10:01;;;;;;;;;;;;;;;14.49;80.92;98570.31;2630433;28;19959;-83
2023/07/14 01:11:18;;;;;;;;;;;;;;;14.44;81.90;98567.03;2630108;28;19939;-83
2023/07/14 01:12:36;;;;;;;;;;;;;;;14.46;82.85;98562.53;2630592;28;20371;-82
2023/07/14 01:13:51;;;;;;;;;;;;;;;14.50;82.61;98565.91;2630370;28;20715;-83
2023/07/14 01:15:07;;;;;;;;;;;;;;;14.40;82.99;98563.66;2630306;28;20065;-83
2023/07/14 01:16:23;;;;;;;;;;;;;;;14.36;83.78;98567.34;2630575;28;19924;-83
2023/07/14 01:17:39;;;;;;;;;;;;;;;14.32;82.54;98562.25;2630383;28;19976;-83
2023/07/14 01:18:54;;;;;;;;;;;;;;;14.36;82.00;98559.44;2630397;28;20368;-83
2023/07/14 01:20:10;;;;;;;;;;;;;;;14.45;81.19;98565.22;2630415;28;19932;-83
2023/07/14 01:21:27;;;;;;;;;;;;;;;14.34;81.15;98560.41;2630117;28;19924;-83
2023/07/14 01:22:45;;;;;;;;;;;;;;;14.43;80.17;98562.69;2630433;28;20007;-83
2023/07/14 01:24:06;;;;;;;;;;;;;;;14.43;79.48;98562.69;2630341;28;19931;-83
2023/07/14 01:25:24;;;;;;;;;;;;;;;14.30;80.71;98559.69;2630102;28;20414;-83
2023/07/14 01:26:50;;;;;;;;;;;;;;;14.37;80.64;98555.00;2630330;28;19924;-83
2023/07/14 01:28:07;;;;;;;;;;;;;;;14.31;80.27;98555.28;2630079;28;19963;-82
2023/07/14 01:29:23;;;;;;;;;;;;;;;14.35;79.78;98559.50;2630248;28;20242;-82
2023/07/14 01:30:39;;;;;;;;;;;;;;;14.36;79.03;98555.94;2630183;28;19924;-84
2023/07/14 01:31:55;;;;;;;;;;;;;;;14.24;80.37;98554.69;2630413;28;20427;-83
2023/07/14 01:33:15;;;;;;;;;;;;;;;14.35;78.71;98563.00;2630483;28;19920;-85
2023/07/14 01:34:30;;;;;;;;;;;;;;;14.41;78.63;98561.88;2630162;28;19930;-82
2023/07/14 01:35:49;;;;;;;;;;;;;;;14.44;78.42;98556.47;2630162;28;20249;-83
2023/07/14 01:37:04;;;;;;;;;;;;;;;14.43;78.51;98561.81;2630456;28;19931;-84
2023/07/14 01:38:21;;;;;;;;;;;;;;;14.35;78.59;98564.75;2630187;28;19924;-82
2023/07/14 01:39:36;;;;;;;;;;;;;;;14.45;77.40;98560.84;2629897;28;20471;-82
2023/07/14 01:40:53;;;;;;;;;;;;;;;14.50;78.23;98563.28;2629948;28;19931;-83
2023/07/14 01:42:08;;;;;;;;;;;;;;;14.27;79.29;98567.72;2630230;28;19920;-83
2023/07/14 01:43:24;;;;;;;;;;;;;;;14.10;80.81;98563.13;2630291;28;19930;-83
2023/07/14 01:44:39;;;;;;;;;;;;;;;14.02;81.63;98576.59;2629966;28;20339;-83
2023/07/14 01:45:57;;;;;;;;;;;;;;;14.03;81.93;98575.69;2629977;28;20370;-83
2023/07/14 01:47:13;;;;;;;;;;;;;;;13.99;81.84;98579.38;2630397;28;19970;-83
2023/07/14 01:48:34;;;;;;;;;;;;;;;14.02;80.47;98573.13;2630091;28;20031;-83
2023/07/14 01:49:51;;;;;;;;;;;;;;;14.02;81.61;98579.22;2629970;28;20039;-83
2023/07/14 01:51:08;;;;;;;;;;;;;;;13.96;81.60;98576.84;2630067;28;20060;-82
2023/07/14 01:52:29;;;;;;;;;;;;;;;13.97;81.42;98579.44;2630272;28;19920;-83
2023/07/14 01:53:48;;;;;;;;;;;;;;;14.00;79.82;98574.97;2630100;28;19967;-83
2023/07/14 01:55:05;;;;;;;;;;;;;;;13.84;82.37;98576.41;2629811;28;20014;-83
2023/07/14 01:56:23;;;;;;;;;;;;;;;14.04;81.25;98571.28;2629847;28;19928;-83
2023/07/14 01:57:38;;;;;;;;;;;;;;;13.95;82.69;98577.78;2630183;28;19971;-83
2023/07/14 01:59:03;;;;;;;;;;;;;;;13.76;85.74;98575.00;2629961;28;19928;-83
2023/07/14 02:00:18;;;;;;;;;;;;;;;13.74;89.07;98575.06;2629917;28;19920;-83
2023/07/14 02:01:35;;;;;;;;;;;;;;;13.65;89.57;98578.91;2630183;28;20425;-83
2023/07/14 02:02:53;;;;;;;;;;;;;;;13.73;88.76;98575.13;2630087;28;19923;-83
2023/07/14 02:04:12;;;;;;;;;;;;;;;13.74;88.06;98574.22;2629986;28;19924;-82
2023/07/14 02:05:35;;;;;;;;;;;;;;;13.68;89.42;98577.94;2629853;28;20027;-83
2023/07/14 02:06:51;;;;;;;;;;;;;;;13.62;89.88;98581.66;2630183;28;19924;-83
2023/07/14 02:08:12;;;;;;;;;;;;;;;13.60;90.85;98574.72;2630198;28;19923;-83
2023/07/14 02:09:28;;;;;;;;;;;;;;;13.69;89.45;98569.13;2629402;28;19931;-83
2023/07/14 02:10:44;;;;;;;;;;;;;;;13.76;87.63;98572.38;2630222;28;20450;-83
2023/07/14 02:12:02;;;;;;;;;;;;;;;13.83;86.26;98573.88;2630002;28;19924;-83
2023/07/14 02:13:18;;;;;;;;;;;;;;;13.78;86.08;98571.41;2630027;28;19924;-83
2023/07/14 02:14:41;;;;;;;;;;;;;;;13.55;88.07;98572.31;2629504;28;19923;-83
2023/07/14 02:15:57;;;;;;;;;;;;;;;13.40;90.09;98574.53;2630137;28;20375;-83
2023/07/14 02:17:23;;;;;;;;;;;;;;;13.43;89.33;98578.84;2630003;28;19927;-83
2023/07/14 02:18:39;;;;;;;;;;;;;;;13.33;91.01;98575.69;2629820;28;19923;-83
2023/07/14 02:19:55;;;;;;;;;;;;;;;13.33;90.63;98577.44;2629864;28;19924;-83
2023/07/14 02:21:12;;;;;;;;;;;;;;;13.44;88.97;98574.47;2630202;28;19924;-83
2023/07/14 02:22:28;;;;;;;;;;;;;;;13.63;86.01;98574.63;2629827;28;20046;-84
2023/07/14 02:23:44;;;;;;;;;;;;;;;13.45;88.93;98581.44;2629682;28;20427;-83
2023/07/14 02:25:02;;;;;;;;;;;;;;;13.33;90.27;98578.31;2630012;28;19920;-83
2023/07/14 02:26:31;;;;;;;;;;;;;;;13.32;89.02;98579.25;2629996;28;19923;-83
2023/07/14 02:27:46;;;;;;;;;;;;;;;13.17;92.70;98577.19;2629759;28;19935;-82
2023/07/14 02:29:02;;;;;;;;;;;;;;;13.14;93.53;98578.13;2629955;28;19928;-83
2023/07/14 02:30:19;;;;;;;;;;;;;;;13.19;93.94;98584.06;2629820;28;19930;-83
2023/07/14 02:32:03;;;;;;;;;;;;;;;13.36;93.16;98577.38;2630344;28;20096;-83
2023/07/14 02:33:21;;;;;;;;;;;;;;;13.37;94.11;98581.72;2617803;28;19924;-83
2023/07/14 02:34:40;;;;;;;;;;;;;;;13.18;94.45;98581.53;2629797;28;20026;-82
2023/07/14 02:35:56;;;;;;;;;;;;;;;13.15;95.13;98579.84;2630076;28;20263;-83
2023/07/14 02:37:36;;;;;;;;;;;;;;;13.36;92.25;98583.47;2630017;28;19967;-83
2023/07/14 02:38:55;;;;;;;;;;;;;;;13.38;94.60;98588.69;2629668;28;19928;-85
2023/07/14 02:40:12;;;;;;;;;;;;;;;13.30;95.35;98585.47;2629780;28;19919;-82
2023/07/14 02:41:39;;;;;;;;;;;;;;;13.26;93.87;98590.84;2630170;28;20317;-82
2023/07/14 02:42:55;;;;;;;;;;;;;;;13.36;94.07;98586.09;2629007;28;19974;-83
2023/07/14 02:44:13;;;;;;;;;;;;;;;13.37;93.48;98585.19;2629328;28;19924;-83
2023/07/14 02:45:29;;;;;;;;;;;;;;;13.42;92.26;98587.63;2626502;28;20611;-83
2023/07/14 02:46:45;;;;;;;;;;;;;;;13.47;91.86;98584.88;2627015;28;19923;-82
2023/07/14 02:48:01;;;;;;;;;;;;;;;13.42;93.71;98583.25;2629757;28;19935;-82
2023/07/14 02:49:17;;;;;;;;;;;;;;;13.42;93.67;98583.25;2629808;28;19926;-83
2023/07/14 02:50:32;;;;;;;;;;;;;;;13.39;94.77;98582.50;2629980;28;19927;-82
2023/07/14 02:51:47;;;;;;;;;;;;;;;13.38;93.43;98592.16;2629821;28;19965;-82
2023/07/14 02:53:03;;;;;;;;;;;;;;;13.33;95.34;98591.47;2629526;28;20416;-83
2023/07/14 02:54:18;;;;;;;;;;;;;;;13.28;100.00;98593.44;2629680;28;19974;-82
2023/07/14 02:55:34;;;;;;;;;;;;;;;13.18;100.00;98587.63;2629923;28;19963;-83
2023/07/14 02:56:49;;;;;;;;;;;;;;;12.96;100.00;98598.03;2629670;28;20089;-83
2023/07/14 02:58:04;;;;;;;;;;;;;;;12.68;100.00;98586.75;2631416;28;19924;-83
2023/07/14 02:59:20;;;;;;;;;;;;;;;12.34;100.00;98602.78;2631589;28;19931;-82
2023/07/14 03:00:35;;;;;;;;;;;;;;;12.28;100.00;98603.81;2631837;28;20337;-83
2023/07/14 03:01:50;;;;;;;;;;;;;;;12.52;100.00;98598.69;2631966;28;19927;-83
2023/07/14 03:03:06;;;;;;;;;;;;;;;12.55;100.00;98601.19;2631595;28;19939;-84
2023/07/14 03:04:23;;;;;;;;;;;;;;;12.45;100.00;98603.28;2631458;28;20272;-83
2023/07/14 03:05:38;;;;;;;;;;;;;;;12.67;100.00;98608.66;2631846;28;20389;-83
2023/07/14 03:06:54;;;;;;;;;;;;;;;12.85;100.00;98603.69;2631842;28;19924;-83
2023/07/14 03:08:16;;;;;;;;;;;;;;;13.03;100.00;98599.56;2631526;28;19920;-83
2023/07/14 03:09:32;;;;;;;;;;;;;;;13.04;100.00;98601.28;2631418;28;20198;-83
2023/07/14 03:10:48;;;;;;;;;;;;;;;12.97;100.00;98603.25;2631865;28;19923;-83
2023/07/14 03:12:04;;;;;;;;;;;;;;;12.94;100.00;98611.25;2631580;28;19924;-83
2023/07/14 03:13:19;;;;;;;;;;;;;;;12.96;100.00;98605.94;2631557;28;19930;-82
2023/07/14 03:14:35;;;;;;;;;;;;;;;12.87;100.00;98608.91;2631052;28;19920;-84
2023/07/14 03:15:51;;;;;;;;;;;;;;;12.79;100.00;98604.75;2631502;28;19926;-82
2023/07/14 03:17:06;;;;;;;;;;;;;;;12.84;100.00;98602.81;2631626;28;19920;-82
2023/07/14 03:18:22;;;;;;;;;;;;;;;12.78;100.00;98600.41;2631227;28;19924;-85
2023/07/14 03:19:38;;;;;;;;;;;;;;;12.80;100.00;98605.63;2631626;28;20359;-85
2023/07/14 03:20:57;;;;;;;;;;;;;;;12.65;100.00;98605.25;2631693;28;19924;-82
2023/07/14 03:22:13;;;;;;;;;;;;;;;12.62;100.00;98607.09;2631269;28;20144;-82
2023/07/14 03:23:28;;;;;;;;;;;;;;;12.37;100.00;98605.28;2631422;28;19924;-83
2023/07/14 03:24:44;;;;;;;;;;;;;;;12.21;100.00;98612.78;2631599;28;19920;-85
2023/07/14 03:26:05;;;;;;;;;;;;;;;12.20;100.00;98609.31;2631643;28;19931;-82
2023/07/14 03:27:20;;;;;;;;;;;;;;;12.37;100.00;98615.78;2631183;28;20382;-84
2023/07/14 03:28:36;;;;;;;;;;;;;;;12.52;100.00;98612.66;2631525;28;19932;-82
2023/07/14 03:29:52;;;;;;;;;;;;;;;12.55;100.00;98607.28;2631430;28;19932;-82
2023/07/14 03:31:07;;;;;;;;;;;;;;;12.53;100.00;98611.75;2631160;28;19920;-84
2023/07/14 03:32:22;;;;;;;;;;;;;;;12.50;100.00;98609.22;2631211;28;19951;-84
2023/07/14 03:33:38;;;;;;;;;;;;;;;12.50;100.00;98619.72;2631339;28;19927;-84
2023/07/14 03:34:54;;;;;;;;;;;;;;;12.65;100.00;98625.38;2631487;28;19927;-84
2023/07/14 03:36:12;;;;;;;;;;;;;;;12.63;100.00;98620.16;2631331;28;19924;-84
2023/07/14 03:37:28;;;;;;;;;;;;;;;12.77;100.00;98616.22;2631183;28;19927;-84
2023/07/14 03:38:44;;;;;;;;;;;;;;;12.88;100.00;98618.50;2631370;28;20417;-84
2023/07/14 03:39:59;;;;;;;;;;;;;;;12.70;100.00;98621.69;2631114;28;20379;-82
2023/07/14 03:41:15;;;;;;;;;;;;;;;12.79;100.00;98622.31;2631013;28;19930;-84
2023/07/14 03:42:30;;;;;;;;;;;;;;;13.08;100.00;98620.44;2631243;28;20011;-85
2023/07/14 03:43:46;;;;;;;;;;;;;;;13.10;100.00;98618.59;2631308;28;20011;-82
2023/07/14 03:45:01;;;;;;;;;;;;;;;13.08;100.00;98616.00;2631455;28;20425;-81
2023/07/14 03:46:16;;;;;;;;;;;;;;;13.25;100.00;98622.44;2631224;28;19923;-84
2023/07/14 03:47:32;;;;;;;;;;;;;;;13.40;100.00;98623.66;2631050;28;19958;-82
2023/07/14 03:48:49;;;;;;;;;;;;;;;13.25;100.00;98627.69;2631024;28;20372;-82
2023/07/14 03:50:04;;;;;;;;;;;;;;;13.08;100.00;98631.78;2631097;28;19927;-82
2023/07/14 03:51:19;;;;;;;;;;;;;;;13.16;100.00;98630.69;2631082;28;20022;-82
2023/07/14 03:52:35;;;;;;;;;;;;;;;12.98;100.00;98622.50;2631091;28;20436;-82
2023/07/14 03:53:51;;;;;;;;;;;;;;;12.78;100.00;98623.19;2631191;28;19928;-84
2023/07/14 03:55:06;;;;;;;;;;;;;;;12.93;100.00;98627.94;2631275;28;20262;-84
2023/07/14 03:56:22;;;;;;;;;;;;;;;13.02;100.00;98625.88;2630736;28;19966;-82
2023/07/14 03:57:37;;;;;;;;;;;;;;;12.82;100.00;98624.81;2631122;28;19959;-81
2023/07/14 03:58:53;;;;;;;;;;;;;;;12.90;100.00;98627.19;2631248;28;19924;-84
2023/07/14 04:00:12;;;;;;;;;;;;;;;12.93;100.00;98629.69;2631079;28;19920;-84
2023/07/14 04:01:28;;;;;;;;;;;;;;;12.99;100.00;98625.09;2630975;28;20066;-84
2023/07/14 04:02:44;;;;;;;;;;;;;;;13.04;100.00;98624.06;2630937;28;19924;-84
2023/07/14 04:04:00;;;;;;;;;;;;;;;13.05;100.00;98628.41;2631193;28;19931;-84
2023/07/14 04:05:15;;;;;;;;;;;;;;;13.02;100.00;98632.03;2630868;28;20059;-84
2023/07/14 04:06:30;;;;;;;;;;;;;;;13.01;100.00;98635.56;2629881;28;19924;-82
2023/07/14 04:07:46;;;;;;;;;;;;;;;12.98;100.00;98633.00;2630748;28;19950;-82
2023/07/14 04:09:02;;;;;;;;;;;;;;;12.99;100.00;98637.34;2630178;28;20361;-82
2023/07/14 04:10:18;;;;;;;;;;;;;;;13.07;100.00;98637.13;2627481;28;19977;-82
2023/07/14 04:11:34;;;;;;;;;;;;;;;12.95;100.00;98641.88;2627405;28;19920;-83
2023/07/14 04:12:50;;;;;;;;;;;;;;;12.92;100.00;98636.75;2630614;28;19924;-83
2023/07/14 04:14:06;;;;;;;;;;;;;;;13.20;100.00;98640.16;2630709;28;19923;-83
2023/07/14 04:15:21;;;;;;;;;;;;;;;13.20;100.00;98634.91;2630732;28;19924;-83
2023/07/14 04:16:37;;;;;;;;;;;;;;;13.20;100.00;98642.78;2630345;28;19980;-82
2023/07/14 04:17:52;;;;;;;;;;;;;;;13.24;100.00;98644.38;2630151;28;20359;-82
2023/07/14 04:19:08;;;;;;;;;;;;;;;13.30;100.00;98646.81;2630557;28;19927;-83
2023/07/14 04:20:23;;;;;;;;;;;;;;;13.24;100.00;98647.88;2630655;28;19927;-82
2023/07/14 04:21:38;;;;;;;;;;;;;;;13.36;100.00;98646.56;2629492;28;19930;-82
2023/07/14 04:22:54;;;;;;;;;;;;;;;13.34;100.00;98647.53;2630582;28;19967;-82
2023/07/14 04:24:09;;;;;;;;;;;;;;;13.20;100.00;98643.66;2626841;28;20164;-83
2023/07/14 04:25:25;;;;;;;;;;;;;;;13.18;100.00;98642.81;2625452;28;19931;-83
2023/07/14 04:26:40;;;;;;;;;;;;;;;13.37;100.00;98652.72;2629183;28;19928;-83
2023/07/14 04:27:57;;;;;;;;;;;;;;;13.37;100.00;98652.72;2628770;28;20684;-82
2023/07/14 04:29:13;;;;;;;;;;;;;;;13.33;100.00;98651.94;2629579;28;19924;-83
2023/07/14 04:30:30;;;;;;;;;;;;;;;13.34;100.00;98650.16;2629256;28;20295;-83
2023/07/14 04:31:45;;;;;;;;;;;;;;;13.53;100.00;98648.63;2629862;28;19928;-83
2023/07/14 04:33:00;;;;;;;;;;;;;;;13.49;100.00;98656.69;2630159;28;19967;-83
2023/07/14 04:34:16;;;;;;;;;;;;;;;13.46;100.00;98646.28;2629825;28;19923;-83
2023/07/14 04:35:32;;;;;;;;;;;;;;;13.67;100.00;98642.84;2629982;28;19934;-83
2023/07/14 04:36:47;;;;;;;;;;;;;;;13.70;100.00;98650.66;2626950;28;19924;-83
2023/07/14 04:38:03;;;;;;;;;;;;;;;13.55;100.00;98641.53;2628813;28;20018;-83
2023/07/14 04:39:18;;;;;;;;;;;;;;;13.61;100.00;98648.34;2626673;28;19924;-84
2023/07/14 04:40:33;;;;;;;;;;;;;;;13.57;100.00;98641.50;2629379;28;19934;-83
2023/07/14 04:41:50;;;;;;;;;;;;;;;13.72;100.00;98641.84;2630007;28;19924;-83
2023/07/14 04:43:05;;;;;;;;;;;;;;;13.72;100.00;98641.84;2630790;28;19927;-83
2023/07/14 04:44:21;;;;;;;;;;;;;;;13.63;100.00;98640.41;2629450;28;19924;-83
2023/07/14 04:45:37;;;;;;;;;;;;;;;13.44;100.00;98635.81;2626977;28;19924;-85
2023/07/14 04:46:52;;;;;;;;;;;;;;;13.69;100.00;98640.16;2629714;28;19924;-83
2023/07/14 04:48:09;;;;;;;;;;;;;;;13.74;100.00;98637.38;2627789;28;19928;-84
2023/07/14 04:49:25;;;;;;;;;;;;;;;13.77;100.00;98634.63;2628920;28;19973;-84
2023/07/14 04:50:40;;;;;;;;;;;;;;;13.79;100.00;98640.66;2629656;28;19973;-83
2023/07/14 04:51:55;;;;;;;;;;;;;;;13.93;100.00;98643.63;2630357;28;19930;-84
2023/07/14 04:53:12;;;;;;;;;;;;;;;13.94;100.00;98647.97;2630469;28;19972;-83
2023/07/14 04:54:27;;;;;;;;;;;;;;;14.01;100.00;98637.22;2630184;28;20272;-83
2023/07/14 04:55:44;;;;;;;;;;;;;;;14.05;100.00;98642.31;2630096;28;19966;-84
2023/07/14 04:56:59;;;;;;;;;;;;;;;14.13;100.00;98639.38;2630536;28;19920;-83
2023/07/14 04:58:16;;;;;;;;;;;;;;;14.31;100.00;98642.19;2629592;28;19920;-83
2023/07/14 04:59:32;;;;;;;;;;;;;;;14.29;100.00;98641.41;2629747;28;19928;-83
2023/07/14 05:00:49;;;;;;;;;;;;;;;14.25;100.00;98641.53;2630327;28;19969;-83
2023/07/14 05:02:05;;;;;;;;;;;;;;;14.18;100.00;98640.03;2630509;28;19920;-83
2023/07/14 05:03:20;;;;;;;;;;;;;;;14.14;100.00;98638.47;2630288;28;20039;-84
2023/07/14 05:04:38;;;;;;;;;;;;;;;14.22;100.00;98644.25;2630109;28;19931;-83
2023/07/14 05:05:54;;;;;;;;;;;;;;;14.47;100.00;98640.66;2630106;28;20869;-83
2023/07/14 05:07:09;;;;;;;;;;;;;;;14.57;100.00;98641.13;2630878;28;19928;-84
2023/07/14 05:08:25;;;;;;;;;;;;;;;14.62;100.00;98639.16;2630006;28;19923;-84
2023/07/14 05:09:40;;;;;;;;;;;;;;;14.54;100.00;98642.13;2630020;28;19931;-84
2023/07/14 05:10:55;;;;;;;;;;;;;;;14.44;100.00;98643.41;2630359;28;19931;-84
2023/07/14 05:12:11;;;;;;;;;;;;;;;14.46;100.00;98643.34;2630667;28;20363;-84
2023/07/14 05:13:26;;;;;;;;;;;;;;;14.53;100.00;98645.69;2630437;28;19924;-84
2023/07/14 05:14:42;;;;;;;;;;;;;;;14.53;100.00;98637.78;2630140;28;19928;-84
2023/07/14 05:15:57;;;;;;;;;;;;;;;14.67;100.00;98634.56;2630203;28;19935;-84
2023/07/14 05:17:13;;;;;;;;;;;;;;;14.92;100.00;98638.84;2630436;28;19924;-84
2023/07/14 05:18:28;;;;;;;;;;;;;;;14.83;100.00;98637.44;2630014;28;19920;-84
2023/07/14 05:19:44;;;;;;;;;;;;;;;15.05;100.00;98640.94;2630210;28;20386;-85
2023/07/14 05:21:00;;;;;;;;;;;;;;;15.13;100.00;98643.25;2629989;28;20318;-84
2023/07/14 05:22:15;;;;;;;;;;;;;;;15.32;100.00;98633.59;2630092;28;20385;-84
2023/07/14 05:23:31;;;;;;;;;;;;;;;15.32;100.00;98632.75;2630065;28;19928;-84
2023/07/14 05:24:47;;;;;;;;;;;;;;;15.22;100.00;98630.50;2629951;28;19923;-84
2023/07/14 05:26:03;;;;;;;;;;;;;;;15.27;98.59;98627.69;2630363;28;20309;-84
2023/07/14 05:27:18;;;;;;;;;;;;;;;15.39;96.95;98618.34;2630322;28;20332;-85
2023/07/14 05:28:34;;;;;;;;;;;;;;;15.40;96.42;98630.59;2630006;28;19924;-84
2023/07/14 05:29:53;;;;;;;;;;;;;;;15.57;95.67;98627.22;2629273;28;19920;-84
2023/07/14 05:31:12;;;;;;;;;;;;;;;15.46;95.21;98625.06;2629727;28;19920;-84
2023/07/14 05:32:27;;;;;;;;;;;;;;;15.61;93.00;98620.88;2629997;28;19961;-84
2023/07/14 05:33:43;;;;;;;;;;;;;;;15.59;94.74;98620.06;2630093;28;20370;-85
2023/07/14 05:34:58;;;;;;;;;;;;;;;15.60;94.41;98616.50;2630015;28;19946;-84
2023/07/14 05:36:14;;;;;;;;;;;;;;;15.74;91.15;98613.25;2630239;28;19982;-84
2023/07/14 05:37:29;;;;;;;;;;;;;;;15.80;89.89;98615.59;2629986;28;20942;-84
2023/07/14 05:38:45;;;;;;;;;;;;;;;15.84;91.56;98613.66;2629810;28;19967;-85
2023/07/14 05:40:00;;;;;;;;;;;;;;;15.84;91.42;98621.59;2630053;28;19924;-85
2023/07/14 05:41:16;;;;;;;;;;;;;;;15.99;89.50;98616.53;2630332;28;19930;-84
2023/07/14 05:42:32;;;;;;;;;;;;;;;16.17;87.60;98614.81;2630101;28;19923;-85
2023/07/14 05:43:47;;;;;;;;;;;;;;;16.26;86.79;98617.00;2629818;28;19973;-85
2023/07/14 05:45:03;;;;;;;;;;;;;;;16.28;87.27;98616.94;2629947;28;19920;-85
2023/07/14 05:46:18;;;;;;;;;;;;;;;16.32;86.04;98618.47;2629783;28;19927;-85
2023/07/14 05:47:35;;;;;;;;;;;;;;;16.46;86.44;98620.47;2629561;28;20009;-86
2023/07/14 05:48:50;;;;;;;;;;;;;;;16.47;83.57;98617.72;2629681;28;19923;-85
2023/07/14 05:50:06;;;;;;;;;;;;;;;16.51;82.94;98618.44;2629702;28;20424;-84
2023/07/14 05:51:21;;;;;;;;;;;;;;;16.65;79.85;98613.31;2629781;28;19988;-84
2023/07/14 05:52:37;;;;;;;;;;;;;;;16.77;79.99;98618.91;2629950;28;19924;-85
2023/07/14 05:53:52;;;;;;;;;;;;;;;16.70;79.09;98618.38;2629882;28;19935;-85
2023/07/14 05:55:08;;;;;;;;;;;;;;;16.93;75.03;98626.94;2630178;28;19923;-85
2023/07/14 05:56:23;;;;;;;;;;;;;;;17.06;74.59;98624.53;2629857;28;19928;-85
2023/07/14 05:57:43;;;;;;;;;;;;;;;17.18;76.04;98630.97;2629843;28;20438;-85
2023/07/14 05:58:59;;;;;;;;;;;;;;;17.17;73.25;98621.31;2629834;28;19930;-85
2023/07/14 06:00:16;;;;;;;;;;;;;;;17.17;74.79;98623.97;2630152;28;20014;-85
2023/07/14 06:01:32;;;;;;;;;;;;;;;17.27;73.70;98622.56;2629810;28;19934;-85
2023/07/14 06:02:50;;;;;;;;;;;;;;;17.32;73.01;98620.53;2629883;28;19955;-85
2023/07/14 06:04:05;;;;;;;;;;;;;;;17.40;69.33;98621.91;2629878;28;19924;-85
2023/07/14 06:05:21;;;;;;;;;;;;;;;17.39;68.05;98620.19;2629794;28;20447;-85
2023/07/14 06:06:36;;;;;;;;;;;;;;;17.43;68.17;98616.44;2629804;28;19931;-86
2023/07/14 06:07:52;;;;;;;;;;;;;;;17.67;65.92;98610.78;2628806;28;20401;-85
2023/07/14 06:09:07;;;;;;;;;;;;;;;17.91;65.22;98617.38;2629427;28;19927;-86
2023/07/14 06:10:23;;;;;;;;;;;;;;;17.89;63.52;98613.09;2629140;28;19928;-86
2023/07/14 06:11:38;;;;;;;;;;;;;;;18.04;64.01;98611.44;2629354;28;20294;-86
2023/07/14 06:12:53;;;;;;;;;;;;;;;18.11;63.39;98614.59;2629698;28;20218;-85
2023/07/14 06:14:09;;;;;;;;;;;;;;;18.11;63.06;98615.44;2629127;28;19996;-86
2023/07/14 06:15:25;;;;;;;;;;;;;;;18.27;61.09;98618.06;2629271;28;19924;-86
2023/07/14 06:16:40;;;;;;;;;;;;;;;18.49;60.58;98623.00;2629833;28;19923;-86
2023/07/14 06:17:56;;;;;;;;;;;;;;;18.41;60.54;98611.13;2629673;28;19985;-87
2023/07/14 06:19:11;;;;;;;;;;;;;;;18.35;60.04;98614.97;2630122;28;20378;-86
2023/07/14 06:20:26;;;;;;;;;;;;;;;18.42;60.70;98612.84;2629214;28;20221;-86
2023/07/14 06:21:42;;;;;;;;;;;;;;;18.54;58.82;98611.25;2629415;28;19923;-86
2023/07/14 06:22:57;;;;;;;;;;;;;;;18.67;59.55;98608.75;2629520;28;19966;-87
2023/07/14 06:24:14;;;;;;;;;;;;;;;18.70;57.32;98606.75;2629860;28;19920;-87
2023/07/14 06:25:29;;;;;;;;;;;;;;;18.96;58.44;98603.53;2629998;28;20398;-87
2023/07/14 06:26:45;;;;;;;;;;;;;;;19.11;56.27;98599.09;2629751;28;19923;-88
2023/07/14 06:28:01;;;;;;;;;;;;;;;19.11;55.85;98602.63;2628692;28;20233;-86
2023/07/14 06:29:16;;;;;;;;;;;;;;;19.31;55.04;98604.06;2629202;28;19924;-86
2023/07/14 06:30:32;;;;;;;;;;;;;;;19.20;55.95;98604.69;2629957;28;19928;-86
2023/07/14 06:31:48;;;;;;;;;;;;;;;19.30;55.94;98599.69;2629839;28;19920;-86
2023/07/14 06:33:04;;;;;;;;;;;;;;;19.56;55.20;98596.38;2631397;28;19932;-88
2023/07/14 06:34:19;;;;;;;;;;;;;;;19.67;53.56;98601.00;2615783;28;19925;-86
2023/07/14 06:35:35;;;;;;;;;;;;;;;19.61;53.44;98600.44;2621290;28;20359;-87
2023/07/14 06:36:50;;;;;;;;;;;;;;;19.59;54.15;98598.81;2631846;28;19931;-86